TimeEST,TemperatureF,Dew PointF,Humidity,Sea Level PressureIn,VisibilityMPH,Wind Direction,Wind SpeedMPH,Gust SpeedMPH,PrecipitationIn,Events,Conditions,WindDirDegrees,DateUTC
12:53 AM,44.1,41.0,89,30.14,2.5,South,6.9,-,N/A,,Clear,190,2012-11-22 05:53:00
1:53 AM,45.0,41.0,86,30.12,2.5,South,9.2,-,N/A,,Partly Cloudy,190,2012-11-22 06:53:00
2:53 AM,45.0,41.0,86,30.12,2.5,South,6.9,-,N/A,,Partly Cloudy,190,2012-11-22 07:53:00
3:06 AM,44.6,42.8,93,30.11,3.0,South,6.9,-,N/A,,Partly Cloudy,190,2012-11-22 08:06:00
3:53 AM,45.0,41.0,86,30.12,3.0,SSW,8.1,-,N/A,,Partly Cloudy,200,2012-11-22 08:53:00
4:53 AM,44.1,39.9,85,30.11,3.0,SSW,8.1,-,N/A,,Partly Cloudy,200,2012-11-22 09:53:00
5:37 AM,42.8,39.2,87,30.09,2.5,SSW,8.1,-,N/A,,Partly Cloudy,210,2012-11-22 10:37:00
5:53 AM,44.1,39.9,85,30.11,2.5,SSW,9.2,-,N/A,,Partly Cloudy,200,2012-11-22 10:53:00
6:53 AM,44.1,41.0,89,30.10,2.5,SSW,8.1,-,N/A,,Partly Cloudy,200,2012-11-22 11:53:00
7:00 AM,42.8,39.2,87,30.08,3.0,South,9.2,-,N/A,,Partly Cloudy,190,2012-11-22 12:00:00
7:35 AM,44.6,41.0,87,30.08,2.0,SSW,8.1,-,N/A,,Mostly Cloudy,200,2012-11-22 12:35:00
7:53 AM,44.1,41.0,89,30.09,2.0,South,9.2,-,N/A,,Mostly Cloudy,190,2012-11-22 12:53:00
8:53 AM,45.0,42.1,90,30.09,2.5,South,10.4,-,N/A,,Partly Cloudy,190,2012-11-22 13:53:00
9:36 AM,48.2,42.8,82,30.06,3.0,South,10.4,-,N/A,,Haze,190,2012-11-22 14:36:00
9:53 AM,50.0,43.0,77,30.06,3.0,South,10.4,-,N/A,,Haze,190,2012-11-22 14:53:00
10:53 AM,54.0,45.0,72,30.06,5.0,SSW,15.0,-,N/A,,Haze,200,2012-11-22 15:53:00
11:53 AM,57.0,44.1,62,30.02,7.0,SSW,16.1,-,N/A,,Partly Cloudy,210,2012-11-22 16:53:00
12:53 PM,60.1,43.0,53,30.00,9.0,SSW,17.3,-,N/A,,Scattered Clouds,200,2012-11-22 17:53:00
1:53 PM,60.1,39.0,46,29.96,10.0,SSW,15.0,31.1,N/A,,Partly Cloudy,200,2012-11-22 18:53:00
2:53 PM,61.0,37.9,42,29.93,10.0,South,16.1,28.8,N/A,,Partly Cloudy,190,2012-11-22 19:53:00
3:53 PM,60.1,37.9,44,29.92,10.0,South,19.6,28.8,N/A,,Scattered Clouds,190,2012-11-22 20:53:00
4:53 PM,57.9,37.9,47,29.91,10.0,South,15.0,-,N/A,,Mostly Cloudy,190,2012-11-22 21:53:00
5:53 PM,57.0,39.0,51,29.89,10.0,South,16.1,-,N/A,,Mostly Cloudy,180,2012-11-22 22:53:00
6:53 PM,57.0,37.9,49,29.86,10.0,South,17.3,28.8,N/A,,Overcast,180,2012-11-22 23:53:00
7:53 PM,57.0,37.9,49,29.86,10.0,SSW,23.0,29.9,N/A,,Overcast,200,2012-11-23 00:53:00
8:53 PM,52.0,45.0,77,29.86,10.0,SSW,18.4,24.2,0.03,Rain,Light Rain,200,2012-11-23 01:53:00
9:53 PM,52.0,45.0,77,29.83,10.0,SSW,11.5,-,0.01,,Overcast,200,2012-11-23 02:53:00
10:53 PM,53.1,43.0,69,29.80,10.0,SSW,13.8,-,0.00,,Mostly Cloudy,200,2012-11-23 03:53:00
11:53 PM,54.0,42.1,64,29.75,10.0,SSW,18.4,27.6,N/A,,Overcast,200,2012-11-23 04:53:00